sensor_id;sensor_type;location;lat;lon;timestamp;P1;durP1;ratioP1;P2;durP2;ratioP2
7479;SDS011;3781;42.272;22.658;2022-08-01T00:01:33;0.90;;;0.90;;
7479;SDS011;3781;42.272;22.658;2022-08-01T00:04:01;0.93;;;0.83;;
7479;SDS011;3781;42.272;22.658;2022-08-01T00:06:28;1.07;;;0.87;;
7479;SDS011;3781;42.272;22.658;2022-08-01T00:08:54;0.83;;;0.83;;
7479;SDS011;3781;42.272;22.658;2022-08-01T00:11:23;0.53;;;0.53;;
7479;SDS011;3781;42.272;22.658;2022-08-01T00:13:49;1.43;;;0.97;;
7479;SDS011;3781;42.272;22.658;2022-08-01T00:16:16;1.70;;;0.70;;
7479;SDS011;3781;42.272;22.658;2022-08-01T00:18:43;0.60;;;0.60;;
7479;SDS011;3781;42.272;22.658;2022-08-01T00:21:10;0.63;;;0.63;;
7479;SDS011;3781;42.272;22.658;2022-08-01T00:23:37;0.43;;;0.40;;
7479;SDS011;3781;42.272;22.658;2022-08-01T00:26:03;0.67;;;0.67;;
7479;SDS011;3781;42.272;22.658;2022-08-01T00:28:32;0.70;;;0.70;;
7479;SDS011;3781;42.272;22.658;2022-08-01T00:30:58;0.40;;;0.40;;
7479;SDS011;3781;42.272;22.658;2022-08-01T00:33:25;1.27;;;0.90;;
7479;SDS011;3781;42.272;22.658;2022-08-01T00:35:52;0.47;;;0.43;;
7479;SDS011;3781;42.272;22.658;2022-08-01T00:38:20;0.93;;;0.67;;
7479;SDS011;3781;42.272;22.658;2022-08-01T00:40:46;0.60;;;0.47;;
7479;SDS011;3781;42.272;22.658;2022-08-01T00:43:13;0.63;;;0.63;;
7479;SDS011;3781;42.272;22.658;2022-08-01T00:45:42;1.07;;;1.07;;
7479;SDS011;3781;42.272;22.658;2022-08-01T00:48:09;1.07;;;1.00;;
7479;SDS011;3781;42.272;22.658;2022-08-01T00:50:36;1.27;;;0.67;;
7479;SDS011;3781;42.272;22.658;2022-08-01T00:53:04;0.93;;;0.73;;
7479;SDS011;3781;42.272;22.658;2022-08-01T00:55:31;0.53;;;0.53;;
7479;SDS011;3781;42.272;22.658;2022-08-01T00:57:58;0.70;;;0.70;;
7479;SDS011;3781;42.272;22.658;2022-08-01T01:00:26;0.53;;;0.40;;
7479;SDS011;3781;42.272;22.658;2022-08-01T01:02:54;1.07;;;1.07;;
7479;SDS011;3781;42.272;22.658;2022-08-01T01:05:21;0.90;;;0.83;;
7479;SDS011;3781;42.272;22.658;2022-08-01T01:07:48;1.60;;;0.90;;
7479;SDS011;3781;42.272;22.658;2022-08-01T01:10:21;0.60;;;0.60;;
7479;SDS011;3781;42.272;22.658;2022-08-01T01:12:54;0.20;;;0.20;;
7479;SDS011;3781;42.272;22.658;2022-08-01T01:15:26;0.40;;;0.40;;
7479;SDS011;3781;42.272;22.658;2022-08-01T01:18:03;0.50;;;0.50;;
7479;SDS011;3781;42.272;22.658;2022-08-01T01:20:36;0.40;;;0.40;;
7479;SDS011;3781;42.272;22.658;2022-08-01T01:23:20;0.40;;;0.40;;
7479;SDS011;3781;42.272;22.658;2022-08-01T01:26:06;0.43;;;0.33;;
7479;SDS011;3781;42.272;22.658;2022-08-01T01:28:53;1.37;;;0.93;;
7479;SDS011;3781;42.272;22.658;2022-08-01T01:31:26;0.50;;;0.50;;
7479;SDS011;3781;42.272;22.658;2022-08-01T01:33:55;0.60;;;0.60;;
7479;SDS011;3781;42.272;22.658;2022-08-01T01:36:25;0.50;;;0.50;;
7479;SDS011;3781;42.272;22.658;2022-08-01T01:38:53;0.60;;;0.60;;
7479;SDS011;3781;42.272;22.658;2022-08-01T01:41:22;0.87;;;0.77;;
7479;SDS011;3781;42.272;22.658;2022-08-01T01:43:50;0.63;;;0.63;;
7479;SDS011;3781;42.272;22.658;2022-08-01T01:46:20;0.70;;;0.67;;
7479;SDS011;3781;42.272;22.658;2022-08-01T01:48:53;0.43;;;0.43;;
7479;SDS011;3781;42.272;22.658;2022-08-01T01:51:22;0.80;;;0.80;;
7479;SDS011;3781;42.272;22.658;2022-08-01T01:53:50;0.40;;;0.40;;
7479;SDS011;3781;42.272;22.658;2022-08-01T01:56:19;0.50;;;0.50;;
7479;SDS011;3781;42.272;22.658;2022-08-01T01:58:48;1.53;;;0.50;;
7479;SDS011;3781;42.272;22.658;2022-08-01T02:01:17;0.60;;;0.60;;
7479;SDS011;3781;42.272;22.658;2022-08-01T02:03:48;0.93;;;0.93;;
7479;SDS011;3781;42.272;22.658;2022-08-01T02:06:15;0.40;;;0.40;;
7479;SDS011;3781;42.272;22.658;2022-08-01T02:08:43;0.30;;;0.30;;
7479;SDS011;3781;42.272;22.658;2022-08-01T02:11:11;0.33;;;0.33;;
7479;SDS011;3781;42.272;22.658;2022-08-01T02:13:44;0.60;;;0.60;;
7479;SDS011;3781;42.272;22.658;2022-08-01T02:16:14;0.70;;;0.67;;
7479;SDS011;3781;42.272;22.658;2022-08-01T02:18:45;2.63;;;0.93;;
7479;SDS011;3781;42.272;22.658;2022-08-01T02:21:12;0.47;;;0.47;;
7479;SDS011;3781;42.272;22.658;2022-08-01T02:23:42;0.53;;;0.47;;
7479;SDS011;3781;42.272;22.658;2022-08-01T02:26:10;0.77;;;0.40;;
7479;SDS011;3781;42.272;22.658;2022-08-01T02:28:43;0.30;;;0.30;;
7479;SDS011;3781;42.272;22.658;2022-08-01T02:31:14;0.47;;;0.47;;
7479;SDS011;3781;42.272;22.658;2022-08-01T02:33:48;0.83;;;0.33;;
7479;SDS011;3781;42.272;22.658;2022-08-01T02:36:21;0.40;;;0.40;;
7479;SDS011;3781;42.272;22.658;2022-08-01T02:38:51;0.20;;;0.20;;
7479;SDS011;3781;42.272;22.658;2022-08-01T02:41:20;0.10;;;0.10;;
7479;SDS011;3781;42.272;22.658;2022-08-01T02:43:50;1.30;;;0.80;;
7479;SDS011;3781;42.272;22.658;2022-08-01T02:46:20;0.33;;;0.33;;
7479;SDS011;3781;42.272;22.658;2022-08-01T02:48:51;0.70;;;0.70;;
7479;SDS011;3781;42.272;22.658;2022-08-01T02:51:21;0.47;;;0.40;;
7479;SDS011;3781;42.272;22.658;2022-08-01T02:53:50;0.87;;;0.83;;
7479;SDS011;3781;42.272;22.658;2022-08-01T02:56:19;0.47;;;0.47;;
7479;SDS011;3781;42.272;22.658;2022-08-01T02:58:48;0.40;;;0.40;;
7479;SDS011;3781;42.272;22.658;2022-08-01T03:01:17;0.77;;;0.60;;
7479;SDS011;3781;42.272;22.658;2022-08-01T03:03:45;0.40;;;0.40;;
7479;SDS011;3781;42.272;22.658;2022-08-01T03:06:14;1.40;;;0.67;;
7479;SDS011;3781;42.272;22.658;2022-08-01T03:08:41;0.60;;;0.60;;
7479;SDS011;3781;42.272;22.658;2022-08-01T03:11:11;0.90;;;0.90;;
7479;SDS011;3781;42.272;22.658;2022-08-01T03:13:40;0.53;;;0.43;;
7479;SDS011;3781;42.272;22.658;2022-08-01T03:16:08;0.67;;;0.67;;
7479;SDS011;3781;42.272;22.658;2022-08-01T03:18:37;0.33;;;0.33;;
7479;SDS011;3781;42.272;22.658;2022-08-01T03:21:07;0.73;;;0.67;;
7479;SDS011;3781;42.272;22.658;2022-08-01T03:23:37;0.60;;;0.57;;
7479;SDS011;3781;42.272;22.658;2022-08-01T03:26:05;0.80;;;0.80;;
7479;SDS011;3781;42.272;22.658;2022-08-01T03:28:32;1.23;;;1.03;;
7479;SDS011;3781;42.272;22.658;2022-08-01T03:31:00;0.67;;;0.67;;
7479;SDS011;3781;42.272;22.658;2022-08-01T03:33:28;0.33;;;0.33;;
7479;SDS011;3781;42.272;22.658;2022-08-01T03:35:55;0.90;;;0.53;;
7479;SDS011;3781;42.272;22.658;2022-08-01T03:38:25;1.57;;;1.40;;
7479;SDS011;3781;42.272;22.658;2022-08-01T03:40:59;0.30;;;0.30;;
7479;SDS011;3781;42.272;22.658;2022-08-01T03:43:35;0.60;;;0.60;;
7479;SDS011;3781;42.272;22.658;2022-08-01T03:46:07;1.20;;;0.80;;
7479;SDS011;3781;42.272;22.658;2022-08-01T03:48:41;1.23;;;1.17;;
7479;SDS011;3781;42.272;22.658;2022-08-01T03:51:13;1.00;;;0.90;;
7479;SDS011;3781;42.272;22.658;2022-08-01T03:53:41;1.00;;;0.90;;
7479;SDS011;3781;42.272;22.658;2022-08-01T03:56:10;0.67;;;0.67;;
7479;SDS011;3781;42.272;22.658;2022-08-01T03:58:39;0.83;;;0.80;;
7479;SDS011;3781;42.272;22.658;2022-08-01T04:01:07;1.83;;;1.57;;
7479;SDS011;3781;42.272;22.658;2022-08-01T04:03:35;1.93;;;1.23;;
7479;SDS011;3781;42.272;22.658;2022-08-01T04:06:03;1.87;;;1.27;;
7479;SDS011;3781;42.272;22.658;2022-08-01T04:08:33;1.00;;;1.00;;
7479;SDS011;3781;42.272;22.658;2022-08-01T04:11:01;1.13;;;1.03;;
7479;SDS011;3781;42.272;22.658;2022-08-01T04:13:30;1.90;;;1.70;;
7479;SDS011;3781;42.272;22.658;2022-08-01T04:15:58;0.97;;;0.97;;
7479;SDS011;3781;42.272;22.658;2022-08-01T04:18:24;1.17;;;1.10;;
7479;SDS011;3781;42.272;22.658;2022-08-01T04:20:51;1.00;;;1.00;;
7479;SDS011;3781;42.272;22.658;2022-08-01T04:23:18;1.07;;;0.93;;
7479;SDS011;3781;42.272;22.658;2022-08-01T04:25:49;2.57;;;1.83;;
7479;SDS011;3781;42.272;22.658;2022-08-01T04:28:16;0.70;;;0.70;;
7479;SDS011;3781;42.272;22.658;2022-08-01T04:30:46;1.07;;;0.97;;
7479;SDS011;3781;42.272;22.658;2022-08-01T04:33:17;1.47;;;1.10;;
7479;SDS011;3781;42.272;22.658;2022-08-01T04:35:46;1.27;;;1.00;;
7479;SDS011;3781;42.272;22.658;2022-08-01T04:38:17;0.67;;;0.67;;
7479;SDS011;3781;42.272;22.658;2022-08-01T04:40:46;0.87;;;0.87;;
7479;SDS011;3781;42.272;22.658;2022-08-01T04:43:15;1.20;;;1.10;;
7479;SDS011;3781;42.272;22.658;2022-08-01T04:45:43;0.77;;;0.77;;
7479;SDS011;3781;42.272;22.658;2022-08-01T04:48:13;1.10;;;0.93;;
7479;SDS011;3781;42.272;22.658;2022-08-01T04:50:44;1.03;;;1.03;;
7479;SDS011;3781;42.272;22.658;2022-08-01T04:53:14;0.90;;;0.90;;
7479;SDS011;3781;42.272;22.658;2022-08-01T04:55:42;1.07;;;1.07;;
7479;SDS011;3781;42.272;22.658;2022-08-01T04:58:11;1.13;;;1.00;;
7479;SDS011;3781;42.272;22.658;2022-08-01T05:00:38;2.70;;;2.20;;
7479;SDS011;3781;42.272;22.658;2022-08-01T05:03:06;2.67;;;1.57;;
7479;SDS011;3781;42.272;22.658;2022-08-01T05:05:34;1.80;;;1.70;;
7479;SDS011;3781;42.272;22.658;2022-08-01T05:08:01;2.10;;;2.00;;
7479;SDS011;3781;42.272;22.658;2022-08-01T05:10:28;1.80;;;1.70;;
7479;SDS011;3781;42.272;22.658;2022-08-01T05:12:55;1.53;;;1.43;;
7479;SDS011;3781;42.272;22.658;2022-08-01T05:15:22;1.53;;;1.43;;
7479;SDS011;3781;42.272;22.658;2022-08-01T05:17:49;1.87;;;1.67;;
7479;SDS011;3781;42.272;22.658;2022-08-01T05:20:17;1.60;;;1.50;;
7479;SDS011;3781;42.272;22.658;2022-08-01T05:22:44;1.73;;;1.63;;
7479;SDS011;3781;42.272;22.658;2022-08-01T05:25:12;1.70;;;1.60;;
7479;SDS011;3781;42.272;22.658;2022-08-01T05:27:38;2.63;;;1.83;;
7479;SDS011;3781;42.272;22.658;2022-08-01T05:30:06;2.30;;;1.80;;
7479;SDS011;3781;42.272;22.658;2022-08-01T05:32:34;1.67;;;1.57;;
7479;SDS011;3781;42.272;22.658;2022-08-01T05:35:01;1.57;;;1.40;;
7479;SDS011;3781;42.272;22.658;2022-08-01T05:37:30;1.80;;;1.70;;
7479;SDS011;3781;42.272;22.658;2022-08-01T05:39:57;2.50;;;1.50;;
7479;SDS011;3781;42.272;22.658;2022-08-01T05:42:24;1.30;;;1.23;;
7479;SDS011;3781;42.272;22.658;2022-08-01T05:44:51;2.57;;;1.37;;
7479;SDS011;3781;42.272;22.658;2022-08-01T05:47:18;1.50;;;1.40;;
7479;SDS011;3781;42.272;22.658;2022-08-01T05:49:45;1.17;;;1.17;;
7479;SDS011;3781;42.272;22.658;2022-08-01T05:52:12;1.37;;;1.30;;
7479;SDS011;3781;42.272;22.658;2022-08-01T05:54:41;1.53;;;1.30;;
7479;SDS011;3781;42.272;22.658;2022-08-01T05:57:07;2.57;;;1.40;;
7479;SDS011;3781;42.272;22.658;2022-08-01T05:59:34;1.60;;;1.50;;
7479;SDS011;3781;42.272;22.658;2022-08-01T06:02:01;1.63;;;1.27;;
7479;SDS011;3781;42.272;22.658;2022-08-01T06:04:28;1.00;;;1.00;;
7479;SDS011;3781;42.272;22.658;2022-08-01T06:06:55;1.70;;;1.60;;
7479;SDS011;3781;42.272;22.658;2022-08-01T06:09:21;1.60;;;1.50;;
7479;SDS011;3781;42.272;22.658;2022-08-01T06:11:50;1.43;;;1.40;;
7479;SDS011;3781;42.272;22.658;2022-08-01T06:20:43;2.30;;;2.00;;
7479;SDS011;3781;42.272;22.658;2022-08-01T06:23:11;3.13;;;1.33;;
7479;SDS011;3781;42.272;22.658;2022-08-01T06:25:38;1.20;;;1.20;;
7479;SDS011;3781;42.272;22.658;2022-08-01T06:28:06;1.40;;;0.97;;
7479;SDS011;3781;42.272;22.658;2022-08-01T06:30:33;1.47;;;1.37;;
7479;SDS011;3781;42.272;22.658;2022-08-01T06:33:00;1.70;;;1.33;;
7479;SDS011;3781;42.272;22.658;2022-08-01T06:35:28;2.70;;;1.60;;
7479;SDS011;3781;42.272;22.658;2022-08-01T06:37:54;1.73;;;1.43;;
7479;SDS011;3781;42.272;22.658;2022-08-01T06:40:21;1.30;;;1.20;;
7479;SDS011;3781;42.272;22.658;2022-08-01T06:42:48;1.77;;;1.67;;
7479;SDS011;3781;42.272;22.658;2022-08-01T06:45:17;1.90;;;1.80;;
7479;SDS011;3781;42.272;22.658;2022-08-01T06:47:47;1.87;;;1.30;;
7479;SDS011;3781;42.272;22.658;2022-08-01T06:50:14;1.53;;;1.43;;
7479;SDS011;3781;42.272;22.658;2022-08-01T06:52:41;1.67;;;1.50;;
7479;SDS011;3781;42.272;22.658;2022-08-01T06:55:08;1.13;;;1.03;;
7479;SDS011;3781;42.272;22.658;2022-08-01T06:57:35;1.13;;;1.13;;
7479;SDS011;3781;42.272;22.658;2022-08-01T07:00:03;1.40;;;1.30;;
7479;SDS011;3781;42.272;22.658;2022-08-01T07:02:34;1.17;;;1.17;;
7479;SDS011;3781;42.272;22.658;2022-08-01T07:05:02;1.00;;;1.00;;
7479;SDS011;3781;42.272;22.658;2022-08-01T07:07:29;1.10;;;1.07;;
7479;SDS011;3781;42.272;22.658;2022-08-01T07:09:56;1.47;;;1.37;;
7479;SDS011;3781;42.272;22.658;2022-08-01T07:12:23;1.50;;;1.40;;
7479;SDS011;3781;42.272;22.658;2022-08-01T07:14:49;1.27;;;1.10;;
7479;SDS011;3781;42.272;22.658;2022-08-01T07:17:16;2.53;;;1.47;;
7479;SDS011;3781;42.272;22.658;2022-08-01T07:19:46;1.60;;;1.40;;
7479;SDS011;3781;42.272;22.658;2022-08-01T07:22:13;2.43;;;1.40;;
7479;SDS011;3781;42.272;22.658;2022-08-01T07:24:41;1.33;;;1.20;;
7479;SDS011;3781;42.272;22.658;2022-08-01T07:27:08;1.37;;;1.10;;
7479;SDS011;3781;42.272;22.658;2022-08-01T07:29:34;1.60;;;1.03;;
7479;SDS011;3781;42.272;22.658;2022-08-01T07:32:01;1.60;;;1.50;;
7479;SDS011;3781;42.272;22.658;2022-08-01T07:34:28;1.23;;;0.93;;
7479;SDS011;3781;42.272;22.658;2022-08-01T07:36:56;0.90;;;0.80;;
7479;SDS011;3781;42.272;22.658;2022-08-01T07:39:23;1.17;;;1.07;;
7479;SDS011;3781;42.272;22.658;2022-08-01T07:41:50;0.70;;;0.70;;
7479;SDS011;3781;42.272;22.658;2022-08-01T07:44:17;1.63;;;1.10;;
7479;SDS011;3781;42.272;22.658;2022-08-01T07:46:43;1.10;;;1.10;;
7479;SDS011;3781;42.272;22.658;2022-08-01T07:49:10;1.23;;;1.13;;
7479;SDS011;3781;42.272;22.658;2022-08-01T07:51:37;1.93;;;1.20;;
7479;SDS011;3781;42.272;22.658;2022-08-01T07:54:05;1.00;;;1.00;;
7479;SDS011;3781;42.272;22.658;2022-08-01T07:56:32;1.73;;;1.63;;
7479;SDS011;3781;42.272;22.658;2022-08-01T07:58:59;1.50;;;1.20;;
7479;SDS011;3781;42.272;22.658;2022-08-01T08:01:26;0.83;;;0.80;;
7479;SDS011;3781;42.272;22.658;2022-08-01T08:03:53;1.90;;;1.30;;
7479;SDS011;3781;42.272;22.658;2022-08-01T08:06:20;1.80;;;1.50;;
7479;SDS011;3781;42.272;22.658;2022-08-01T08:08:46;2.43;;;2.23;;
7479;SDS011;3781;42.272;22.658;2022-08-01T08:11:14;2.10;;;1.70;;
7479;SDS011;3781;42.272;22.658;2022-08-01T08:13:41;3.43;;;1.67;;
7479;SDS011;3781;42.272;22.658;2022-08-01T08:16:08;2.20;;;1.87;;
7479;SDS011;3781;42.272;22.658;2022-08-01T08:18:35;0.60;;;0.60;;
7479;SDS011;3781;42.272;22.658;2022-08-01T08:21:03;4.97;;;2.17;;
7479;SDS011;3781;42.272;22.658;2022-08-01T08:23:30;1.80;;;1.70;;
7479;SDS011;3781;42.272;22.658;2022-08-01T08:26:15;1.27;;;1.17;;
7479;SDS011;3781;42.272;22.658;2022-08-01T08:28:42;1.13;;;1.10;;
7479;SDS011;3781;42.272;22.658;2022-08-01T08:31:09;1.47;;;1.03;;
7479;SDS011;3781;42.272;22.658;2022-08-01T08:33:35;1.77;;;1.67;;
7479;SDS011;3781;42.272;22.658;2022-08-01T08:36:02;1.10;;;1.10;;
7479;SDS011;3781;42.272;22.658;2022-08-01T08:38:29;1.30;;;1.20;;
7479;SDS011;3781;42.272;22.658;2022-08-01T08:40:57;1.53;;;1.30;;
7479;SDS011;3781;42.272;22.658;2022-08-01T08:43:25;1.10;;;1.00;;
7479;SDS011;3781;42.272;22.658;2022-08-01T08:45:52;0.87;;;0.87;;
7479;SDS011;3781;42.272;22.658;2022-08-01T08:48:19;1.13;;;1.02;;
7479;SDS011;3781;42.272;22.658;2022-08-01T08:50:47;5.32;;;2.03;;
7479;SDS011;3781;42.272;22.658;2022-08-01T08:53:15;0.93;;;0.93;;
7479;SDS011;3781;42.272;22.658;2022-08-01T08:55:43;0.68;;;0.68;;
7479;SDS011;3781;42.272;22.658;2022-08-01T08:58:10;0.85;;;0.85;;
7479;SDS011;3781;42.272;22.658;2022-08-01T09:00:41;0.80;;;0.80;;
7479;SDS011;3781;42.272;22.658;2022-08-01T09:03:08;0.75;;;0.75;;
7479;SDS011;3781;42.272;22.658;2022-08-01T09:05:35;1.02;;;0.80;;
7479;SDS011;3781;42.272;22.658;2022-08-01T09:08:05;1.20;;;0.80;;
7479;SDS011;3781;42.272;22.658;2022-08-01T09:10:33;0.88;;;0.88;;
7479;SDS011;3781;42.272;22.658;2022-08-01T09:13:04;1.35;;;1.25;;
7479;SDS011;3781;42.272;22.658;2022-08-01T09:15:41;0.80;;;0.80;;
7479;SDS011;3781;42.272;22.658;2022-08-01T09:21:08;0.68;;;0.68;;
7479;SDS011;3781;42.272;22.658;2022-08-01T09:23:38;1.58;;;1.23;;
7479;SDS011;3781;42.272;22.658;2022-08-01T09:26:07;1.05;;;1.05;;
7479;SDS011;3781;42.272;22.658;2022-08-01T09:28:35;1.52;;;1.13;;
7479;SDS011;3781;42.272;22.658;2022-08-01T09:31:08;0.95;;;0.95;;
7479;SDS011;3781;42.272;22.658;2022-08-01T09:33:50;1.50;;;1.40;;
7479;SDS011;3781;42.272;22.658;2022-08-01T09:36:19;1.17;;;1.08;;
7479;SDS011;3781;42.272;22.658;2022-08-01T09:38:47;1.10;;;1.10;;
7479;SDS011;3781;42.272;22.658;2022-08-01T09:41:14;1.23;;;1.23;;
7479;SDS011;3781;42.272;22.658;2022-08-01T09:43:41;0.90;;;0.90;;
7479;SDS011;3781;42.272;22.658;2022-08-01T09:46:16;1.95;;;1.00;;
7479;SDS011;3781;42.272;22.658;2022-08-01T09:48:59;1.00;;;1.00;;
7479;SDS011;3781;42.272;22.658;2022-08-01T09:51:27;0.77;;;0.77;;
7479;SDS011;3781;42.272;22.658;2022-08-01T09:53:56;0.98;;;0.98;;
7479;SDS011;3781;42.272;22.658;2022-08-01T09:56:23;1.65;;;1.55;;
7479;SDS011;3781;42.272;22.658;2022-08-01T09:58:50;0.90;;;0.90;;
7479;SDS011;3781;42.272;22.658;2022-08-01T10:01:20;0.88;;;0.88;;
7479;SDS011;3781;42.272;22.658;2022-08-01T10:03:52;1.60;;;1.25;;
7479;SDS011;3781;42.272;22.658;2022-08-01T10:06:31;1.00;;;1.00;;
7479;SDS011;3781;42.272;22.658;2022-08-01T10:08:57;0.93;;;0.93;;
7479;SDS011;3781;42.272;22.658;2022-08-01T10:11:24;1.13;;;1.02;;
7479;SDS011;3781;42.272;22.658;2022-08-01T10:13:52;0.77;;;0.77;;
7479;SDS011;3781;42.272;22.658;2022-08-01T10:16:21;0.73;;;0.73;;
7479;SDS011;3781;42.272;22.658;2022-08-01T10:18:49;1.20;;;1.20;;
7479;SDS011;3781;42.272;22.658;2022-08-01T10:21:16;2.85;;;0.70;;
7479;SDS011;3781;42.272;22.658;2022-08-01T10:23:44;1.25;;;1.13;;
7479;SDS011;3781;42.272;22.658;2022-08-01T10:26:11;0.90;;;0.90;;
7479;SDS011;3781;42.272;22.658;2022-08-01T10:28:38;0.88;;;0.88;;
7479;SDS011;3781;42.272;22.658;2022-08-01T10:31:07;0.70;;;0.70;;
7479;SDS011;3781;42.272;22.658;2022-08-01T10:33:35;1.20;;;1.20;;
7479;SDS011;3781;42.272;22.658;2022-08-01T10:36:05;0.70;;;0.70;;
7479;SDS011;3781;42.272;22.658;2022-08-01T10:38:32;2.30;;;0.95;;
7479;SDS011;3781;42.272;22.658;2022-08-01T10:41:00;0.90;;;0.90;;
7479;SDS011;3781;42.272;22.658;2022-08-01T10:43:30;0.80;;;0.80;;
7479;SDS011;3781;42.272;22.658;2022-08-01T10:45:57;0.95;;;0.82;;
7479;SDS011;3781;42.272;22.658;2022-08-01T10:48:27;1.55;;;1.02;;
7479;SDS011;3781;42.272;22.658;2022-08-01T10:51:02;1.33;;;1.05;;
7479;SDS011;3781;42.272;22.658;2022-08-01T10:53:30;1.35;;;1.10;;
7479;SDS011;3781;42.272;22.658;2022-08-01T10:55:58;3.10;;;1.13;;
7479;SDS011;3781;42.272;22.658;2022-08-01T10:58:27;0.95;;;0.95;;
7479;SDS011;3781;42.272;22.658;2022-08-01T11:01:16;4.95;;;1.30;;
7479;SDS011;3781;42.272;22.658;2022-08-01T11:03:58;1.13;;;1.13;;
7479;SDS011;3781;42.272;22.658;2022-08-01T11:06:36;1.10;;;1.08;;
7479;SDS011;3781;42.272;22.658;2022-08-01T11:09:24;2.63;;;1.35;;
7479;SDS011;3781;42.272;22.658;2022-08-01T11:11:57;1.35;;;1.30;;
7479;SDS011;3781;42.272;22.658;2022-08-01T11:14:26;1.30;;;1.30;;
7479;SDS011;3781;42.272;22.658;2022-08-01T11:16:54;1.38;;;0.98;;
7479;SDS011;3781;42.272;22.658;2022-08-01T11:19:21;0.95;;;0.95;;
7479;SDS011;3781;42.272;22.658;2022-08-01T11:21:59;1.20;;;1.20;;
7479;SDS011;3781;42.272;22.658;2022-08-01T11:27:29;1.10;;;1.10;;
7479;SDS011;3781;42.272;22.658;2022-08-01T11:32:51;1.13;;;1.13;;
7479;SDS011;3781;42.272;22.658;2022-08-01T11:35:19;0.90;;;0.90;;
7479;SDS011;3781;42.272;22.658;2022-08-01T11:37:50;1.25;;;1.25;;
7479;SDS011;3781;42.272;22.658;2022-08-01T11:40:18;0.90;;;0.90;;
7479;SDS011;3781;42.272;22.658;2022-08-01T11:42:46;1.40;;;1.30;;
7479;SDS011;3781;42.272;22.658;2022-08-01T11:45:13;2.25;;;1.30;;
7479;SDS011;3781;42.272;22.658;2022-08-01T11:47:44;0.85;;;0.85;;
7479;SDS011;3781;42.272;22.658;2022-08-01T11:50:31;1.10;;;1.10;;
7479;SDS011;3781;42.272;22.658;2022-08-01T11:53:02;1.00;;;1.00;;
7479;SDS011;3781;42.272;22.658;2022-08-01T11:55:31;0.70;;;0.70;;
7479;SDS011;3781;42.272;22.658;2022-08-01T11:58:00;0.80;;;0.80;;
7479;SDS011;3781;42.272;22.658;2022-08-01T12:00:27;0.80;;;0.80;;
7479;SDS011;3781;42.272;22.658;2022-08-01T12:02:59;1.38;;;1.15;;
7479;SDS011;3781;42.272;22.658;2022-08-01T12:05:27;0.70;;;0.70;;
7479;SDS011;3781;42.272;22.658;2022-08-01T12:07:57;0.50;;;0.50;;
7479;SDS011;3781;42.272;22.658;2022-08-01T12:10:26;0.80;;;0.55;;
7479;SDS011;3781;42.272;22.658;2022-08-01T12:12:59;1.00;;;1.00;;
7479;SDS011;3781;42.272;22.658;2022-08-01T12:15:29;0.90;;;0.90;;
7479;SDS011;3781;42.272;22.658;2022-08-01T12:17:58;0.73;;;0.73;;
7479;SDS011;3781;42.272;22.658;2022-08-01T12:20:26;0.80;;;0.80;;
7479;SDS011;3781;42.272;22.658;2022-08-01T12:22:54;1.02;;;0.98;;
7479;SDS011;3781;42.272;22.658;2022-08-01T12:25:21;1.33;;;0.60;;
7479;SDS011;3781;42.272;22.658;2022-08-01T12:27:50;0.70;;;0.70;;
7479;SDS011;3781;42.272;22.658;2022-08-01T12:30:17;0.52;;;0.52;;
7479;SDS011;3781;42.272;22.658;2022-08-01T12:32:47;0.55;;;0.55;;
7479;SDS011;3781;42.272;22.658;2022-08-01T12:35:15;0.73;;;0.70;;
7479;SDS011;3781;42.272;22.658;2022-08-01T12:37:43;0.65;;;0.65;;
7479;SDS011;3781;42.272;22.658;2022-08-01T12:40:12;1.05;;;0.98;;
7479;SDS011;3781;42.272;22.658;2022-08-01T12:42:41;0.60;;;0.60;;
7479;SDS011;3781;42.272;22.658;2022-08-01T12:45:11;1.00;;;1.00;;
7479;SDS011;3781;42.272;22.658;2022-08-01T12:47:40;0.82;;;0.82;;
7479;SDS011;3781;42.272;22.658;2022-08-01T12:50:08;0.90;;;0.90;;
7479;SDS011;3781;42.272;22.658;2022-08-01T12:52:38;0.90;;;0.90;;
7479;SDS011;3781;42.272;22.658;2022-08-01T12:55:10;1.25;;;1.25;;
7479;SDS011;3781;42.272;22.658;2022-08-01T12:57:39;1.15;;;1.15;;
7479;SDS011;3781;42.272;22.658;2022-08-01T13:03:00;1.00;;;1.00;;
7479;SDS011;3781;42.272;22.658;2022-08-01T13:05:31;1.42;;;1.33;;
7479;SDS011;3781;42.272;22.658;2022-08-01T13:08:09;0.75;;;0.75;;
7479;SDS011;3781;42.272;22.658;2022-08-01T13:10:36;1.23;;;1.13;;
7479;SDS011;3781;42.272;22.658;2022-08-01T13:13:03;0.93;;;0.88;;
7479;SDS011;3781;42.272;22.658;2022-08-01T13:15:32;1.25;;;1.10;;
7479;SDS011;3781;42.272;22.658;2022-08-01T13:18:00;1.20;;;1.10;;
7479;SDS011;3781;42.272;22.658;2022-08-01T13:20:47;1.05;;;1.05;;
7479;SDS011;3781;42.272;22.658;2022-08-01T13:23:15;2.17;;;1.10;;
7479;SDS011;3781;42.272;22.658;2022-08-01T13:25:46;1.48;;;1.42;;
7479;SDS011;3781;42.272;22.658;2022-08-01T13:28:17;0.90;;;0.90;;
7479;SDS011;3781;42.272;22.658;2022-08-01T13:30:57;1.38;;;1.27;;
7479;SDS011;3781;42.272;22.658;2022-08-01T13:33:26;1.42;;;1.42;;
7479;SDS011;3781;42.272;22.658;2022-08-01T13:35:54;1.50;;;1.30;;
7479;SDS011;3781;42.272;22.658;2022-08-01T13:38:22;1.10;;;1.10;;
7479;SDS011;3781;42.272;22.658;2022-08-01T13:41:03;1.40;;;1.30;;
7479;SDS011;3781;42.272;22.658;2022-08-01T13:43:30;1.02;;;1.02;;
7479;SDS011;3781;42.272;22.658;2022-08-01T13:45:58;1.50;;;1.40;;
7479;SDS011;3781;42.272;22.658;2022-08-01T13:48:27;1.75;;;1.25;;
7479;SDS011;3781;42.272;22.658;2022-08-01T13:50:54;1.17;;;1.15;;
7479;SDS011;3781;42.272;22.658;2022-08-01T13:53:21;1.40;;;1.38;;
7479;SDS011;3781;42.272;22.658;2022-08-01T13:55:48;1.45;;;1.45;;
7479;SDS011;3781;42.272;22.658;2022-08-01T13:58:14;1.52;;;1.42;;
7479;SDS011;3781;42.272;22.658;2022-08-01T14:00:41;1.27;;;1.27;;
7479;SDS011;3781;42.272;22.658;2022-08-01T14:03:09;1.25;;;1.23;;
7479;SDS011;3781;42.272;22.658;2022-08-01T14:05:36;1.75;;;1.65;;
7479;SDS011;3781;42.272;22.658;2022-08-01T14:08:04;1.58;;;1.48;;
7479;SDS011;3781;42.272;22.658;2022-08-01T14:10:31;1.40;;;1.30;;
7479;SDS011;3781;42.272;22.658;2022-08-01T14:12:58;3.25;;;1.67;;
7479;SDS011;3781;42.272;22.658;2022-08-01T14:15:25;1.63;;;1.52;;
7479;SDS011;3781;42.272;22.658;2022-08-01T14:17:52;1.65;;;1.55;;
7479;SDS011;3781;42.272;22.658;2022-08-01T14:20:20;2.88;;;1.40;;
7479;SDS011;3781;42.272;22.658;2022-08-01T14:22:47;1.67;;;1.58;;
7479;SDS011;3781;42.272;22.658;2022-08-01T14:25:14;1.63;;;1.52;;
7479;SDS011;3781;42.272;22.658;2022-08-01T14:27:43;1.35;;;1.25;;
7479;SDS011;3781;42.272;22.658;2022-08-01T14:30:10;1.48;;;1.23;;
7479;SDS011;3781;42.272;22.658;2022-08-01T14:32:38;1.38;;;1.38;;
7479;SDS011;3781;42.272;22.658;2022-08-01T14:35:05;1.42;;;1.33;;
7479;SDS011;3781;42.272;22.658;2022-08-01T14:37:33;1.42;;;1.33;;
7479;SDS011;3781;42.272;22.658;2022-08-01T14:40:00;1.27;;;1.27;;
7479;SDS011;3781;42.272;22.658;2022-08-01T14:42:32;1.50;;;1.40;;
7479;SDS011;3781;42.272;22.658;2022-08-01T14:44:59;1.33;;;1.33;;
7479;SDS011;3781;42.272;22.658;2022-08-01T14:47:26;1.42;;;1.27;;
7479;SDS011;3781;42.272;22.658;2022-08-01T14:49:53;1.13;;;1.02;;
7479;SDS011;3781;42.272;22.658;2022-08-01T14:52:20;0.90;;;0.90;;
7479;SDS011;3781;42.272;22.658;2022-08-01T14:54:48;1.15;;;1.15;;
7479;SDS011;3781;42.272;22.658;2022-08-01T14:57:15;1.52;;;1.42;;
7479;SDS011;3781;42.272;22.658;2022-08-01T14:59:43;1.10;;;1.10;;
7479;SDS011;3781;42.272;22.658;2022-08-01T15:02:10;1.15;;;1.15;;
7479;SDS011;3781;42.272;22.658;2022-08-01T15:04:37;1.13;;;1.13;;
7479;SDS011;3781;42.272;22.658;2022-08-01T15:07:04;1.10;;;1.02;;
7479;SDS011;3781;42.272;22.658;2022-08-01T15:09:31;1.17;;;1.17;;
7479;SDS011;3781;42.272;22.658;2022-08-01T15:11:59;1.02;;;1.00;;
7479;SDS011;3781;42.272;22.658;2022-08-01T15:14:26;1.15;;;1.13;;
7479;SDS011;3781;42.272;22.658;2022-08-01T15:17:10;0.90;;;0.90;;
7479;SDS011;3781;42.272;22.658;2022-08-01T15:19:37;0.80;;;0.80;;
7479;SDS011;3781;42.272;22.658;2022-08-01T15:22:04;1.15;;;1.05;;
7479;SDS011;3781;42.272;22.658;2022-08-01T15:24:30;0.90;;;0.90;;
7479;SDS011;3781;42.272;22.658;2022-08-01T15:26:57;0.90;;;0.90;;
7479;SDS011;3781;42.272;22.658;2022-08-01T15:29:26;1.50;;;1.10;;